Airport ICAO


07:28 UTC

9°C

Fog


An affordable passengers' Moving Map for your aircraft. Made for the iPad and the iPhone
More information here

LFLL Saint Exupery


Lyon FRANCE   VFR


METAR LFLL 200700Z 33004KT 9999 MIFG NSC 09/07 Q1023 NOSIG 0h28min

TAF LFLL 200500Z 2006/2112 34007KT 7000 NSC PROB30 TEMPO 2006/2008 0800 BCFG BKN001 BECMG 2007/2009 9999 SCT015 BECMG 2010/2013 CAVOK BECMG 2019/2022 VRB02KT PROB40 TEMPO 2103/2107 2000 BR BECMG 2110/2112 12005KT 2h28min





NOTAMS

OPEN